createdAt,value
2023-05-26T00:02:05.904Z,2.20
2023-05-26T00:04:51.940Z,1.80
2023-05-26T00:07:41.164Z,2.03
2023-05-26T00:10:27.954Z,2.10
2023-05-26T00:13:14.050Z,2.08
2023-05-26T00:16:00.242Z,1.90
2023-05-26T00:18:48.673Z,2.15
2023-05-26T00:21:37.018Z,2.03
2023-05-26T00:24:23.459Z,2.20
2023-05-26T00:27:09.938Z,2.40
2023-05-26T00:29:59.373Z,2.45
2023-05-26T00:32:45.807Z,2.42
2023-05-26T00:35:32.390Z,2.42
2023-05-26T00:38:18.582Z,2.28
2023-05-26T00:41:04.777Z,2.25
2023-05-26T00:43:52.660Z,2.25
2023-05-26T00:46:39.291Z,2.10
2023-05-26T00:49:25.676Z,2.38
2023-05-26T00:52:12.384Z,2.22
2023-05-26T00:54:58.789Z,2.10
2023-05-26T00:57:45.908Z,2.05
2023-05-26T01:00:32.404Z,2.20
2023-05-26T01:03:19.693Z,1.90
2023-05-26T01:06:07.962Z,2.10
2023-05-26T01:08:54.467Z,1.95
2023-05-26T01:11:49.510Z,1.73
2023-05-26T01:14:38.020Z,1.80
2023-05-26T01:17:26.594Z,1.83
2023-05-26T01:20:33.455Z,1.98
2023-05-26T01:23:28.765Z,1.80
2023-05-26T01:26:18.265Z,1.77
2023-05-26T01:29:11.953Z,2.17
2023-05-26T01:32:12.052Z,1.90
2023-05-26T01:34:58.222Z,1.88
2023-05-26T01:37:45.283Z,1.83
2023-05-26T01:40:32.068Z,1.73
2023-05-26T01:43:25.797Z,2.00
2023-05-26T01:49:01.029Z,2.03
2023-05-26T01:51:52.363Z,1.70
2023-05-26T01:54:43.282Z,2.13
2023-05-26T01:57:30.566Z,2.08
2023-05-26T02:00:25.262Z,2.05
2023-05-26T02:03:11.781Z,2.03
2023-05-26T02:06:00.495Z,2.20
2023-05-26T02:08:48.335Z,2.05
2023-05-26T02:11:34.529Z,2.20
2023-05-26T02:14:20.878Z,2.10
2023-05-26T02:17:07.186Z,1.98
2023-05-26T02:19:53.522Z,2.10
2023-05-26T02:22:40.088Z,2.00
2023-05-26T02:25:26.324Z,2.22
2023-05-26T02:28:12.604Z,2.38
2023-05-26T02:30:58.870Z,2.10
2023-05-26T02:33:46.601Z,2.20
2023-05-26T02:36:34.176Z,2.30
2023-05-26T02:39:20.438Z,2.63
2023-05-26T02:42:07.542Z,2.63
2023-05-26T02:44:53.708Z,2.63
2023-05-26T02:47:41.206Z,2.65
2023-05-26T02:50:28.194Z,2.67
2023-05-26T02:53:16.337Z,2.72
2023-05-26T02:56:04.130Z,2.55
2023-05-26T02:58:50.632Z,2.80
2023-05-26T03:01:36.976Z,3.03
2023-05-26T03:04:23.093Z,3.20
2023-05-26T03:07:10.096Z,3.20
2023-05-26T03:09:57.936Z,3.38
2023-05-26T03:12:45.030Z,3.20
2023-05-26T03:15:38.434Z,3.00
2023-05-26T03:18:31.865Z,2.70
2023-05-26T03:21:46.881Z,2.90
2023-05-26T03:24:27.612Z,3.20
2023-05-26T03:27:13.961Z,3.08
2023-05-26T03:30:00.172Z,3.33
2023-05-26T03:32:47.013Z,3.40
2023-05-26T03:35:33.496Z,3.50
2023-05-26T03:38:19.972Z,3.72
2023-05-26T03:41:07.414Z,3.60
2023-05-26T03:44:01.367Z,3.75
2023-05-26T03:46:48.533Z,3.67
2023-05-26T03:49:36.143Z,3.40
2023-05-26T03:52:22.734Z,3.60
2023-05-26T03:55:10.984Z,3.40
2023-05-26T03:57:58.659Z,3.63
2023-05-26T04:00:44.850Z,3.40
2023-05-26T04:03:31.539Z,3.42
2023-05-26T04:06:17.700Z,3.78
2023-05-26T04:09:04.982Z,3.55
2023-05-26T04:11:53.020Z,3.75
2023-05-26T04:14:39.903Z,3.30
2023-05-26T04:17:26.478Z,3.15
2023-05-26T04:20:14.731Z,3.00
2023-05-26T04:23:00.977Z,3.47
2023-05-26T04:25:48.320Z,3.25
2023-05-26T04:28:45.330Z,3.55
2023-05-26T04:32:01.665Z,3.40
2023-05-26T04:35:16.603Z,3.40
2023-05-26T04:38:06.337Z,3.90
2023-05-26T04:40:54.211Z,3.72
2023-05-26T04:43:45.393Z,3.67
2023-05-26T04:46:32.442Z,3.45
2023-05-26T04:49:21.199Z,3.42
2023-05-26T04:52:09.813Z,3.47
2023-05-26T04:54:58.057Z,2.92
2023-05-26T04:57:48.437Z,3.50
2023-05-26T05:00:40.186Z,3.55
2023-05-26T05:03:48.968Z,3.88
2023-05-26T05:06:42.674Z,3.90
2023-05-26T05:09:31.268Z,3.53
2023-05-26T05:12:17.866Z,3.33
2023-05-26T05:15:06.979Z,3.33
2023-05-26T05:17:53.910Z,3.60
2023-05-26T05:20:40.470Z,2.42
2023-05-26T05:23:31.983Z,3.22
2023-05-26T05:26:22.531Z,3.20
2023-05-26T05:29:10.187Z,2.78
2023-05-26T05:32:00.938Z,3.33
2023-05-26T05:34:51.754Z,3.03
2023-05-26T05:37:38.525Z,2.92
2023-05-26T05:40:25.191Z,2.50
2023-05-26T05:43:13.120Z,2.42
2023-05-26T05:45:59.483Z,2.67
2023-05-26T05:49:09.048Z,1.73
2023-05-26T05:51:59.781Z,2.15
2023-05-26T05:54:47.308Z,2.13
2023-05-26T05:57:34.520Z,1.50
2023-05-26T06:00:20.797Z,1.60
2023-05-26T06:03:11.001Z,1.98
2023-05-26T06:05:58.376Z,1.60
2023-05-26T06:08:44.829Z,1.40
2023-05-26T06:11:31.748Z,1.48
2023-05-26T06:14:19.894Z,1.73
2023-05-26T06:17:06.558Z,1.70
2023-05-26T06:19:53.306Z,1.23
2023-05-26T06:22:42.918Z,1.58
2023-05-26T06:25:34.414Z,1.55
2023-05-26T06:28:25.113Z,1.40
2023-05-26T06:31:11.869Z,1.63
2023-05-26T06:34:02.509Z,1.50
2023-05-26T06:36:50.458Z,1.35
2023-05-26T06:39:37.901Z,1.60
2023-05-26T06:42:25.040Z,1.58
2023-05-26T06:45:11.722Z,1.73
2023-05-26T06:47:58.866Z,1.30
2023-05-26T06:50:46.523Z,1.55
2023-05-26T06:53:36.108Z,1.30
2023-05-26T06:56:22.827Z,1.38
2023-05-26T06:59:10.451Z,1.20
2023-05-26T07:01:57.175Z,1.15
2023-05-26T07:04:45.013Z,1.40
2023-05-26T07:07:31.748Z,1.08
2023-05-26T07:10:17.973Z,1.10
2023-05-26T07:13:04.482Z,1.40
2023-05-26T07:15:54.735Z,1.40
2023-05-26T07:18:42.021Z,1.30
2023-05-26T07:21:29.202Z,1.30
2023-05-26T07:24:17.189Z,1.33
2023-05-26T07:27:04.086Z,1.45
2023-05-26T07:29:56.010Z,1.50
2023-05-26T07:32:42.606Z,1.50
2023-05-26T07:35:29.044Z,1.50
2023-05-26T07:38:16.497Z,1.60
2023-05-26T07:41:02.925Z,1.55
2023-05-26T07:43:49.728Z,1.40
2023-05-26T07:46:36.571Z,1.52
2023-05-26T07:49:22.746Z,1.52
2023-05-26T07:52:11.705Z,1.60
2023-05-26T07:54:58.460Z,1.58
2023-05-26T07:57:44.887Z,1.40
2023-05-26T08:00:34.135Z,1.55
2023-05-26T08:03:20.944Z,1.50
2023-05-26T08:06:21.786Z,1.60
2023-05-26T08:09:12.321Z,1.48
2023-05-26T08:11:58.878Z,1.70
2023-05-26T08:14:45.667Z,1.70
2023-05-26T08:27:18.648Z,1.80
2023-05-26T08:30:05.377Z,2.00
2023-05-26T08:32:51.828Z,1.65
2023-05-26T08:35:37.888Z,1.70
2023-05-26T08:38:24.260Z,1.55
2023-05-26T08:41:13.102Z,1.60
2023-05-26T08:44:07.472Z,1.70
2023-05-26T08:47:19.141Z,1.70
2023-05-26T08:50:29.811Z,1.90
2023-05-26T08:57:17.934Z,2.05
2023-05-26T09:03:57.917Z,2.20
2023-05-26T09:06:45.364Z,2.05
2023-05-26T09:09:40.345Z,2.22
2023-05-26T09:15:42.832Z,2.20
2023-05-26T09:18:30.841Z,2.58
2023-05-26T09:21:19.336Z,1.90
2023-05-26T09:24:32.429Z,2.10
2023-05-26T09:27:19.966Z,2.22
2023-05-26T09:30:42.578Z,2.20
2023-05-26T09:34:00.628Z,2.15
2023-05-26T09:36:56.570Z,2.30
2023-05-26T09:39:43.136Z,2.17
2023-05-26T09:42:50.111Z,2.28
2023-05-26T09:45:37.467Z,2.40
2023-05-26T09:48:24.016Z,2.50
2023-05-26T09:51:13.087Z,2.60
2023-05-26T09:54:00.635Z,2.40
2023-05-26T09:56:50.060Z,2.28
2023-05-26T09:59:39.456Z,2.28
2023-05-26T10:02:27.368Z,2.45
2023-05-26T10:05:14.199Z,2.38
2023-05-26T10:08:03.947Z,2.60
2023-05-26T10:10:51.301Z,2.55
2023-05-26T10:13:38.047Z,2.55
2023-05-26T10:16:24.934Z,2.45
2023-05-26T10:19:18.708Z,2.40
2023-05-26T10:22:08.746Z,2.38
2023-05-26T10:28:53.454Z,2.90
2023-05-26T10:31:41.552Z,3.03
2023-05-26T10:34:56.868Z,2.75
2023-05-26T10:37:50.307Z,2.72
2023-05-26T10:40:52.952Z,3.10
2023-05-26T10:43:39.618Z,2.67
2023-05-26T10:46:38.441Z,3.05
2023-05-26T10:49:25.837Z,2.70
2023-05-26T10:52:16.105Z,2.92
2023-05-26T10:55:02.330Z,2.72
2023-05-26T10:57:48.674Z,2.80
2023-05-26T11:00:37.095Z,3.20
2023-05-26T11:03:39.874Z,2.92
2023-05-26T11:06:37.307Z,3.00
2023-05-26T11:09:24.584Z,2.67
2023-05-26T11:12:11.100Z,2.92
2023-05-26T11:14:58.615Z,2.58
2023-05-26T11:17:46.405Z,3.00
2023-05-26T11:20:33.018Z,3.10
2023-05-26T11:23:20.037Z,3.13
2023-05-26T11:26:16.330Z,2.92
2023-05-26T11:29:04.560Z,2.92
2023-05-26T11:31:52.010Z,2.70
2023-05-26T11:34:38.416Z,2.63
2023-05-26T11:37:27.506Z,2.50
2023-05-26T11:40:14.052Z,2.83
2023-05-26T11:43:00.575Z,2.88
2023-05-26T11:45:47.008Z,3.03
2023-05-26T11:48:36.535Z,2.92
2023-05-26T11:51:23.938Z,2.80
2023-05-26T11:54:15.010Z,2.92
2023-05-26T11:57:03.117Z,2.93
2023-05-26T11:59:49.511Z,2.85
2023-05-26T12:02:36.537Z,3.22
2023-05-26T12:05:29.701Z,3.03
2023-05-26T12:08:16.742Z,3.30
2023-05-26T12:11:03.140Z,3.30
2023-05-26T12:13:50.240Z,3.28
2023-05-26T12:16:36.459Z,3.20
2023-05-26T12:19:23.769Z,3.30
2023-05-26T12:22:10.950Z,3.40
2023-05-26T12:25:03.176Z,3.30
2023-05-26T12:27:49.742Z,3.10
2023-05-26T12:30:48.668Z,3.45
2023-05-26T12:33:44.117Z,3.40
2023-05-26T12:36:30.366Z,3.30
2023-05-26T12:39:17.183Z,3.40
2023-05-26T12:42:03.527Z,3.40
2023-05-26T12:44:50.070Z,3.50
2023-05-26T12:47:36.662Z,3.55
2023-05-26T12:50:23.237Z,3.47
2023-05-26T12:53:09.803Z,3.67
2023-05-26T12:55:57.494Z,3.08
2023-05-26T12:58:44.072Z,3.30
2023-05-26T13:01:30.619Z,3.55
2023-05-26T13:04:17.322Z,3.80
2023-05-26T13:07:04.609Z,3.33
2023-05-26T13:09:51.104Z,3.10
2023-05-26T13:12:37.490Z,3.22
2023-05-26T13:15:23.744Z,3.30
2023-05-26T13:18:10.351Z,3.17
2023-05-26T13:20:57.986Z,3.13
2023-05-26T13:23:44.394Z,2.60
2023-05-26T13:26:30.744Z,2.60
2023-05-26T13:29:17.232Z,2.28
2023-05-26T13:32:03.568Z,2.20
2023-05-26T13:34:50.015Z,2.60
2023-05-26T13:37:36.569Z,2.72
2023-05-26T13:40:24.007Z,2.33
2023-05-26T13:43:10.406Z,2.90
2023-05-26T13:45:57.129Z,2.97
2023-05-26T13:48:43.948Z,2.35
2023-05-26T13:51:31.049Z,3.28
2023-05-26T13:54:17.341Z,2.33
2023-05-26T13:57:04.574Z,3.00
2023-05-26T13:59:50.910Z,2.55
2023-05-26T14:02:40.568Z,2.63
2023-05-26T14:05:27.633Z,2.72
2023-05-26T14:08:14.565Z,3.20
2023-05-26T14:11:00.950Z,2.80
2023-05-26T14:13:47.457Z,2.55
2023-05-26T14:16:34.320Z,2.42
2023-05-26T14:19:22.822Z,2.67
2023-05-26T14:22:16.741Z,2.65
2023-05-26T14:25:03.270Z,2.80
2023-05-26T14:27:49.912Z,2.45
2023-05-26T14:30:36.233Z,2.35
2023-05-26T14:33:22.651Z,2.63
2023-05-26T14:36:09.016Z,2.55
2023-05-26T14:38:55.428Z,2.28
2023-05-26T14:41:42.688Z,2.30
2023-05-26T14:44:28.926Z,2.40
2023-05-26T14:47:14.935Z,2.40
2023-05-26T14:50:01.335Z,2.42
2023-05-26T14:52:47.760Z,2.03
2023-05-26T14:55:34.882Z,1.88
2023-05-26T14:58:21.120Z,2.10
2023-05-26T15:01:07.283Z,1.92
2023-05-26T15:06:43.542Z,1.88
2023-05-26T15:09:29.945Z,1.70
2023-05-26T15:12:16.504Z,1.75
2023-05-26T15:15:03.386Z,1.98
2023-05-26T15:17:50.319Z,2.00
2023-05-26T15:20:40.758Z,1.88
2023-05-26T15:23:29.040Z,1.52
2023-05-26T15:26:15.826Z,2.45
2023-05-26T15:29:02.110Z,1.77
2023-05-26T15:31:48.171Z,2.10
2023-05-26T15:34:34.402Z,1.77
2023-05-26T15:37:21.193Z,2.05
2023-05-26T15:40:08.746Z,1.90
2023-05-26T15:42:55.472Z,1.60
2023-05-26T15:45:42.116Z,1.48
2023-05-26T15:48:28.403Z,1.83
2023-05-26T15:51:14.748Z,1.83
2023-05-26T15:54:01.228Z,1.50
2023-05-26T15:56:47.525Z,1.30
2023-05-26T15:59:33.635Z,1.48
2023-05-26T16:02:23.860Z,1.50
2023-05-26T16:05:13.161Z,1.40
2023-05-26T16:07:59.266Z,1.30
2023-05-26T16:10:45.927Z,1.10
2023-05-26T16:13:32.658Z,1.15
2023-05-26T16:16:18.867Z,1.10
2023-05-26T16:19:06.085Z,0.90
2023-05-26T16:21:52.395Z,1.00
2023-05-26T16:24:41.691Z,1.05
2023-05-26T16:27:29.077Z,0.90
2023-05-26T16:30:16.033Z,0.70
2023-05-26T16:33:02.157Z,0.80
2023-05-26T16:35:51.896Z,1.00
2023-05-26T16:38:38.413Z,0.82
2023-05-26T16:41:24.768Z,0.90
2023-05-26T16:44:10.979Z,1.10
2023-05-26T16:46:57.959Z,0.93
2023-05-26T16:49:43.964Z,0.90
2023-05-26T16:52:33.498Z,0.90
2023-05-26T16:55:20.111Z,1.00
2023-05-26T17:01:03.795Z,1.00
2023-05-26T17:03:50.145Z,0.93
2023-05-26T17:06:36.910Z,1.10
2023-05-26T17:09:22.976Z,1.08
2023-05-26T17:12:09.227Z,1.20
2023-05-26T17:14:56.035Z,1.23
2023-05-26T17:17:42.182Z,1.10
2023-05-26T17:20:28.492Z,1.10
2023-05-26T17:23:15.399Z,1.23
2023-05-26T17:26:01.982Z,1.27
2023-05-26T17:28:48.365Z,1.13
2023-05-26T17:31:34.598Z,1.00
2023-05-26T17:34:21.303Z,1.23
2023-05-26T17:37:08.155Z,1.40
2023-05-26T17:39:54.896Z,1.08
2023-05-26T17:42:41.133Z,1.38
2023-05-26T17:45:29.342Z,0.95
2023-05-26T17:48:15.601Z,1.00
2023-05-26T17:51:05.026Z,1.30
2023-05-26T17:53:51.545Z,1.08
2023-05-26T17:56:39.227Z,1.05
2023-05-26T17:59:25.997Z,1.20
2023-05-26T18:02:12.293Z,1.17
2023-05-26T18:04:59.483Z,1.00
2023-05-26T18:07:48.180Z,1.17
2023-05-26T18:10:34.504Z,1.08
2023-05-26T18:13:21.789Z,1.13
2023-05-26T18:16:08.763Z,1.00
2023-05-26T18:18:55.162Z,1.00
2023-05-26T18:21:41.640Z,1.10
2023-05-26T18:24:28.616Z,1.38
2023-05-26T18:27:19.325Z,1.20
2023-05-26T18:30:06.680Z,1.17
2023-05-26T18:32:53.469Z,1.10
2023-05-26T18:35:40.275Z,0.98
2023-05-26T18:38:26.498Z,1.15
2023-05-26T18:41:15.444Z,1.10
2023-05-26T18:44:02.167Z,1.20
2023-05-26T18:46:49.438Z,1.20
2023-05-26T18:49:39.246Z,1.15
2023-05-26T18:52:31.019Z,0.90
2023-05-26T18:55:17.886Z,1.52
2023-05-26T18:58:06.944Z,1.10
2023-05-26T19:00:53.056Z,1.02
2023-05-26T19:03:45.753Z,1.02
2023-05-26T19:06:35.337Z,0.90
2023-05-26T19:09:22.783Z,1.23
2023-05-26T19:12:12.173Z,1.20
2023-05-26T19:15:21.476Z,1.00
2023-05-26T19:23:47.539Z,0.90
2023-05-26T19:27:09.159Z,1.00
2023-05-26T19:29:55.763Z,0.90
2023-05-26T19:32:44.634Z,1.17
2023-05-26T19:35:34.400Z,1.10
2023-05-26T19:38:20.922Z,0.93
2023-05-26T19:41:07.138Z,0.90
2023-05-26T19:43:56.588Z,0.82
2023-05-26T19:46:47.820Z,0.70
2023-05-26T19:49:37.002Z,0.93
2023-05-26T19:52:23.294Z,0.85
2023-05-26T19:55:10.215Z,0.98
2023-05-26T19:57:57.433Z,0.93
2023-05-26T20:00:44.012Z,0.90
2023-05-26T20:03:30.366Z,0.60
2023-05-26T20:06:17.427Z,0.60
2023-05-26T20:09:04.216Z,0.45
2023-05-26T20:11:50.751Z,0.45
2023-05-26T20:14:38.197Z,0.30
2023-05-26T20:17:24.732Z,1.50
2023-05-26T20:20:14.446Z,0.55
2023-05-26T20:23:01.746Z,0.63
2023-05-26T20:25:48.601Z,0.60
2023-05-26T20:28:35.126Z,0.50
2023-05-26T20:31:22.315Z,0.70
2023-05-26T20:34:08.771Z,0.55
2023-05-26T20:36:55.203Z,0.60
2023-05-26T20:39:42.169Z,0.93
2023-05-26T20:42:32.312Z,0.70
2023-05-26T20:45:19.916Z,0.73
2023-05-26T20:48:06.735Z,0.60
2023-05-26T20:50:53.375Z,0.60
2023-05-26T20:53:40.057Z,0.60
2023-05-26T20:56:26.832Z,0.68
2023-05-26T20:59:20.375Z,0.60
2023-05-26T21:02:12.077Z,0.60
2023-05-26T21:08:02.175Z,0.68
2023-05-26T21:10:48.595Z,0.80
2023-05-26T21:13:35.263Z,0.70
2023-05-26T21:16:55.715Z,0.50
2023-05-26T21:19:42.969Z,0.80
2023-05-26T21:23:23.327Z,0.70
2023-05-26T21:26:10.482Z,0.60
2023-05-26T21:28:56.582Z,0.80
2023-05-26T21:31:43.012Z,0.68
2023-05-26T21:34:29.738Z,0.80
2023-05-26T21:37:16.458Z,0.90
2023-05-26T21:40:16.832Z,0.80
2023-05-26T21:43:13.962Z,0.80
2023-05-26T21:46:03.271Z,0.90
2023-05-26T21:48:49.728Z,0.80
2023-05-26T21:51:38.407Z,0.80
2023-05-26T21:54:24.774Z,0.70
2023-05-26T21:57:12.769Z,0.90
2023-05-26T21:59:58.814Z,0.80
2023-05-26T22:02:48.562Z,0.65
2023-05-26T22:05:35.169Z,0.95
2023-05-26T22:08:21.478Z,0.80
2023-05-26T22:11:08.490Z,0.75
2023-05-26T22:13:54.703Z,1.02
2023-05-26T22:17:03.513Z,0.90
2023-05-26T22:19:53.065Z,0.60
2023-05-26T22:22:39.273Z,0.90
2023-05-26T22:25:29.612Z,0.90
2023-05-26T22:28:28.499Z,0.70
2023-05-26T22:31:15.108Z,0.85
2023-05-26T22:34:01.498Z,0.80
2023-05-26T22:36:48.177Z,0.80
2023-05-26T22:43:14.416Z,1.00
2023-05-26T22:46:01.084Z,1.02
2023-05-26T22:48:51.406Z,0.80
2023-05-26T22:51:41.635Z,0.80
2023-05-26T22:54:28.549Z,1.00
2023-05-26T22:57:15.077Z,0.90
2023-05-26T23:00:02.520Z,0.90
2023-05-26T23:02:49.498Z,0.90
2023-05-26T23:05:37.453Z,0.90
2023-05-26T23:11:31.909Z,0.82
2023-05-26T23:14:18.593Z,0.90
2023-05-26T23:17:14.692Z,1.00
2023-05-26T23:20:07.429Z,0.90
2023-05-26T23:22:54.230Z,0.90
2023-05-26T23:25:41.892Z,1.00
2023-05-26T23:28:28.219Z,0.77
2023-05-26T23:31:14.540Z,0.93
2023-05-26T23:34:01.222Z,1.10
2023-05-26T23:36:47.539Z,1.00
2023-05-26T23:39:33.945Z,0.95
2023-05-26T23:42:20.067Z,1.00
2023-05-26T23:45:06.894Z,1.00
2023-05-26T23:47:53.410Z,0.80
2023-05-26T23:50:40.226Z,0.88
2023-05-26T23:53:26.860Z,0.77
2023-05-26T23:56:13.046Z,0.80
2023-05-26T23:58:59.853Z,0.90
